sensor_id;sensor_type;location;lat;lon;timestamp;temperature;humidity
48043;DHT22;33988;47.992;8.820;2023-04-22T00:01:24;17.00;50.10
48043;DHT22;33988;47.992;8.820;2023-04-22T00:03:51;16.90;50.10
48043;DHT22;33988;47.992;8.820;2023-04-22T00:06:19;16.90;50.10
48043;DHT22;33988;47.992;8.820;2023-04-22T00:08:45;16.90;50.20
48043;DHT22;33988;47.992;8.820;2023-04-22T00:11:15;16.90;50.20
48043;DHT22;33988;47.992;8.820;2023-04-22T00:13:42;16.90;50.90
48043;DHT22;33988;47.992;8.820;2023-04-22T00:16:11;16.90;50.30
48043;DHT22;33988;47.992;8.820;2023-04-22T00:18:38;16.80;50.30
48043;DHT22;33988;47.992;8.820;2023-04-22T00:21:06;16.80;50.30
48043;DHT22;33988;47.992;8.820;2023-04-22T00:23:33;16.80;50.30
48043;DHT22;33988;47.992;8.820;2023-04-22T00:26:00;16.80;50.40
48043;DHT22;33988;47.992;8.820;2023-04-22T00:28:30;16.80;50.40
48043;DHT22;33988;47.992;8.820;2023-04-22T00:30:59;16.70;50.50
48043;DHT22;33988;47.992;8.820;2023-04-22T00:33:29;16.70;50.50
48043;DHT22;33988;47.992;8.820;2023-04-22T00:35:56;16.70;50.50
48043;DHT22;33988;47.992;8.820;2023-04-22T00:38:23;16.60;50.50
48043;DHT22;33988;47.992;8.820;2023-04-22T00:40:50;16.70;50.60
48043;DHT22;33988;47.992;8.820;2023-04-22T00:43:17;16.70;50.60
48043;DHT22;33988;47.992;8.820;2023-04-22T00:45:46;16.60;50.60
48043;DHT22;33988;47.992;8.820;2023-04-22T00:48:14;16.60;50.60
48043;DHT22;33988;47.992;8.820;2023-04-22T00:50:41;16.60;50.60
48043;DHT22;33988;47.992;8.820;2023-04-22T00:53:08;16.60;50.70
48043;DHT22;33988;47.992;8.820;2023-04-22T00:55:37;16.60;50.70
48043;DHT22;33988;47.992;8.820;2023-04-22T00:58:04;16.60;50.70
48043;DHT22;33988;47.992;8.820;2023-04-22T01:00:31;16.50;50.70
48043;DHT22;33988;47.992;8.820;2023-04-22T01:02:58;16.50;50.70
48043;DHT22;33988;47.992;8.820;2023-04-22T01:05:29;16.50;50.80
48043;DHT22;33988;47.992;8.820;2023-04-22T01:07:56;16.50;50.80
48043;DHT22;33988;47.992;8.820;2023-04-22T01:10:23;16.50;50.90
48043;DHT22;33988;47.992;8.820;2023-04-22T01:12:53;16.50;50.90
48043;DHT22;33988;47.992;8.820;2023-04-22T01:15:19;16.50;50.90
48043;DHT22;33988;47.992;8.820;2023-04-22T01:17:50;16.40;50.90
48043;DHT22;33988;47.992;8.820;2023-04-22T01:20:21;16.40;50.90
48043;DHT22;33988;47.992;8.820;2023-04-22T01:22:49;16.40;50.90
48043;DHT22;33988;47.992;8.820;2023-04-22T01:25:23;16.40;50.90
48043;DHT22;33988;47.992;8.820;2023-04-22T01:27:52;16.40;50.90
48043;DHT22;33988;47.992;8.820;2023-04-22T01:30:19;16.40;50.90
48043;DHT22;33988;47.992;8.820;2023-04-22T01:32:47;16.30;50.80
48043;DHT22;33988;47.992;8.820;2023-04-22T01:35:16;16.30;50.90
48043;DHT22;33988;47.992;8.820;2023-04-22T01:37:43;16.30;50.90
48043;DHT22;33988;47.992;8.820;2023-04-22T01:40:12;16.30;50.80
48043;DHT22;33988;47.992;8.820;2023-04-22T01:42:40;16.20;50.80
48043;DHT22;33988;47.992;8.820;2023-04-22T01:45:10;16.20;50.90
48043;DHT22;33988;47.992;8.820;2023-04-22T01:47:45;16.20;50.90
48043;DHT22;33988;47.992;8.820;2023-04-22T01:50:12;16.10;50.90
48043;DHT22;33988;47.992;8.820;2023-04-22T01:52:39;16.10;50.90
48043;DHT22;33988;47.992;8.820;2023-04-22T01:55:07;16.10;51.00
48043;DHT22;33988;47.992;8.820;2023-04-22T01:57:37;16.00;51.00
48043;DHT22;33988;47.992;8.820;2023-04-22T02:00:05;16.00;51.00
48043;DHT22;33988;47.992;8.820;2023-04-22T02:02:33;16.00;51.00
48043;DHT22;33988;47.992;8.820;2023-04-22T02:05:01;15.90;51.00
48043;DHT22;33988;47.992;8.820;2023-04-22T02:07:28;15.90;51.10
48043;DHT22;33988;47.992;8.820;2023-04-22T02:09:57;15.90;51.10
48043;DHT22;33988;47.992;8.820;2023-04-22T02:12:27;15.90;51.20
48043;DHT22;33988;47.992;8.820;2023-04-22T02:14:56;15.90;51.20
48043;DHT22;33988;47.992;8.820;2023-04-22T02:17:24;15.80;51.20
48043;DHT22;33988;47.992;8.820;2023-04-22T02:19:50;15.80;51.30
48043;DHT22;33988;47.992;8.820;2023-04-22T02:22:17;15.80;51.30
48043;DHT22;33988;47.992;8.820;2023-04-22T02:24:47;15.80;51.40
48043;DHT22;33988;47.992;8.820;2023-04-22T02:27:16;15.80;51.40
48043;DHT22;33988;47.992;8.820;2023-04-22T02:29:45;15.80;51.50
48043;DHT22;33988;47.992;8.820;2023-04-22T02:32:13;15.80;51.50
48043;DHT22;33988;47.992;8.820;2023-04-22T02:34:42;15.80;51.50
48043;DHT22;33988;47.992;8.820;2023-04-22T02:37:09;15.80;51.50
48043;DHT22;33988;47.992;8.820;2023-04-22T02:39:36;15.70;51.40
48043;DHT22;33988;47.992;8.820;2023-04-22T02:42:03;15.70;51.50
48043;DHT22;33988;47.992;8.820;2023-04-22T02:44:30;15.70;51.40
48043;DHT22;33988;47.992;8.820;2023-04-22T02:46:57;15.70;51.40
48043;DHT22;33988;47.992;8.820;2023-04-22T02:49:24;15.70;51.40
48043;DHT22;33988;47.992;8.820;2023-04-22T02:51:51;15.70;51.40
48043;DHT22;33988;47.992;8.820;2023-04-22T02:54:20;15.70;51.40
48043;DHT22;33988;47.992;8.820;2023-04-22T02:56:47;15.60;51.30
48043;DHT22;33988;47.992;8.820;2023-04-22T02:59:14;15.60;51.30
48043;DHT22;33988;47.992;8.820;2023-04-22T03:01:41;15.60;51.30
48043;DHT22;33988;47.992;8.820;2023-04-22T03:04:11;15.60;51.30
48043;DHT22;33988;47.992;8.820;2023-04-22T03:06:40;15.50;51.30
48043;DHT22;33988;47.992;8.820;2023-04-22T03:09:07;15.50;51.40
48043;DHT22;33988;47.992;8.820;2023-04-22T03:11:34;15.50;51.40
48043;DHT22;33988;47.992;8.820;2023-04-22T03:14:01;15.50;51.40
48043;DHT22;33988;47.992;8.820;2023-04-22T03:16:27;15.50;51.50
48043;DHT22;33988;47.992;8.820;2023-04-22T03:18:54;15.40;51.50
48043;DHT22;33988;47.992;8.820;2023-04-22T03:21:21;15.40;51.50
48043;DHT22;33988;47.992;8.820;2023-04-22T03:23:50;15.40;51.60
48043;DHT22;33988;47.992;8.820;2023-04-22T03:26:20;15.30;51.60
48043;DHT22;33988;47.992;8.820;2023-04-22T03:28:51;15.10;52.40
48043;DHT22;33988;47.992;8.820;2023-04-22T03:31:18;15.30;51.60
48043;DHT22;33988;47.992;8.820;2023-04-22T03:33:48;15.30;51.60
48043;DHT22;33988;47.992;8.820;2023-04-22T03:36:14;15.30;51.60
48043;DHT22;33988;47.992;8.820;2023-04-22T03:38:41;15.30;51.70
48043;DHT22;33988;47.992;8.820;2023-04-22T03:41:10;15.20;51.60
48043;DHT22;33988;47.992;8.820;2023-04-22T03:43:37;15.20;51.60
48043;DHT22;33988;47.992;8.820;2023-04-22T03:46:04;15.20;51.90
48043;DHT22;33988;47.992;8.820;2023-04-22T03:48:32;15.20;51.60
48043;DHT22;33988;47.992;8.820;2023-04-22T03:51:01;15.10;51.60
48043;DHT22;33988;47.992;8.820;2023-04-22T03:53:29;15.10;51.70
48043;DHT22;33988;47.992;8.820;2023-04-22T03:55:58;15.10;51.80
48043;DHT22;33988;47.992;8.820;2023-04-22T03:58:25;15.10;51.80
48043;DHT22;33988;47.992;8.820;2023-04-22T04:00:54;15.10;51.80
48043;DHT22;33988;47.992;8.820;2023-04-22T04:03:21;15.00;51.90
48043;DHT22;33988;47.992;8.820;2023-04-22T04:05:50;15.00;51.90
48043;DHT22;33988;47.992;8.820;2023-04-22T04:08:20;15.00;52.00
48043;DHT22;33988;47.992;8.820;2023-04-22T04:10:46;14.80;52.10
48043;DHT22;33988;47.992;8.820;2023-04-22T04:13:13;14.90;52.10
48043;DHT22;33988;47.992;8.820;2023-04-22T04:15:40;15.00;52.10
48043;DHT22;33988;47.992;8.820;2023-04-22T04:18:10;15.00;52.20
48043;DHT22;33988;47.992;8.820;2023-04-22T04:20:46;14.90;52.10
48043;DHT22;33988;47.992;8.820;2023-04-22T04:23:13;14.90;52.20
48043;DHT22;33988;47.992;8.820;2023-04-22T04:25:40;14.90;52.10
48043;DHT22;33988;47.992;8.820;2023-04-22T04:28:10;14.90;52.20
48043;DHT22;33988;47.992;8.820;2023-04-22T04:30:37;15.00;52.20
48043;DHT22;33988;47.992;8.820;2023-04-22T04:33:04;14.90;52.10
48043;DHT22;33988;47.992;8.820;2023-04-22T04:35:37;14.90;52.10
48043;DHT22;33988;47.992;8.820;2023-04-22T04:38:05;14.90;52.10
48043;DHT22;33988;47.992;8.820;2023-04-22T04:40:33;14.90;52.10
48043;DHT22;33988;47.992;8.820;2023-04-22T04:43:00;14.90;52.10
48043;DHT22;33988;47.992;8.820;2023-04-22T04:45:34;14.90;52.10
48043;DHT22;33988;47.992;8.820;2023-04-22T04:48:05;14.90;52.20
48043;DHT22;33988;47.992;8.820;2023-04-22T04:50:41;14.90;52.20
48043;DHT22;33988;47.992;8.820;2023-04-22T04:53:09;14.90;52.30
48043;DHT22;33988;47.992;8.820;2023-04-22T04:55:39;14.90;52.30
48043;DHT22;33988;47.992;8.820;2023-04-22T04:58:06;14.80;52.30
48043;DHT22;33988;47.992;8.820;2023-04-22T05:00:35;14.90;52.40
48043;DHT22;33988;47.992;8.820;2023-04-22T05:03:02;14.90;52.40
48043;DHT22;33988;47.992;8.820;2023-04-22T05:05:35;14.90;52.50
48043;DHT22;33988;47.992;8.820;2023-04-22T05:08:04;14.90;52.50
48043;DHT22;33988;47.992;8.820;2023-04-22T05:10:35;14.90;52.60
48043;DHT22;33988;47.992;8.820;2023-04-22T05:13:02;14.90;52.60
48043;DHT22;33988;47.992;8.820;2023-04-22T05:15:32;14.90;52.70
48043;DHT22;33988;47.992;8.820;2023-04-22T05:18:01;14.80;52.70
48043;DHT22;33988;47.992;8.820;2023-04-22T05:20:28;14.90;52.80
48043;DHT22;33988;47.992;8.820;2023-04-22T05:22:55;14.90;52.80
48043;DHT22;33988;47.992;8.820;2023-04-22T05:25:25;14.90;52.80
48043;DHT22;33988;47.992;8.820;2023-04-22T05:27:54;14.90;52.90
48043;DHT22;33988;47.992;8.820;2023-04-22T05:30:21;14.90;52.90
48043;DHT22;33988;47.992;8.820;2023-04-22T05:32:48;14.90;52.90
48043;DHT22;33988;47.992;8.820;2023-04-22T05:35:17;14.90;53.00
48043;DHT22;33988;47.992;8.820;2023-04-22T05:37:49;14.90;52.90
48043;DHT22;33988;47.992;8.820;2023-04-22T05:40:15;15.00;53.00
48043;DHT22;33988;47.992;8.820;2023-04-22T05:42:45;15.00;53.00
48043;DHT22;33988;47.992;8.820;2023-04-22T05:45:11;15.00;53.00
48043;DHT22;33988;47.992;8.820;2023-04-22T05:47:38;15.00;53.00
48043;DHT22;33988;47.992;8.820;2023-04-22T05:50:06;15.10;53.00
48043;DHT22;33988;47.992;8.820;2023-04-22T05:52:39;15.10;53.00
48043;DHT22;33988;47.992;8.820;2023-04-22T05:55:06;15.10;53.10
48043;DHT22;33988;47.992;8.820;2023-04-22T05:57:33;15.10;53.10
48043;DHT22;33988;47.992;8.820;2023-04-22T06:00:03;15.10;53.20
48043;DHT22;33988;47.992;8.820;2023-04-22T06:02:32;15.20;53.30
48043;DHT22;33988;47.992;8.820;2023-04-22T06:04:59;15.20;53.30
48043;DHT22;33988;47.992;8.820;2023-04-22T06:07:27;15.20;53.30
48043;DHT22;33988;47.992;8.820;2023-04-22T06:09:56;15.30;53.40
48043;DHT22;33988;47.992;8.820;2023-04-22T06:12:32;15.30;53.40
48043;DHT22;33988;47.992;8.820;2023-04-22T06:15:00;15.30;53.40
48043;DHT22;33988;47.992;8.820;2023-04-22T06:17:30;15.30;53.30
48043;DHT22;33988;47.992;8.820;2023-04-22T06:19:57;15.30;53.30
48043;DHT22;33988;47.992;8.820;2023-04-22T06:22:24;15.40;53.30
48043;DHT22;33988;47.992;8.820;2023-04-22T06:24:51;15.40;53.30
48043;DHT22;33988;47.992;8.820;2023-04-22T06:27:18;15.40;53.30
48043;DHT22;33988;47.992;8.820;2023-04-22T06:29:47;15.40;54.00
48043;DHT22;33988;47.992;8.820;2023-04-22T06:32:16;15.50;53.40
48043;DHT22;33988;47.992;8.820;2023-04-22T06:34:45;15.40;53.40
48043;DHT22;33988;47.992;8.820;2023-04-22T06:37:15;15.50;53.50
48043;DHT22;33988;47.992;8.820;2023-04-22T06:39:41;15.50;53.50
48043;DHT22;33988;47.992;8.820;2023-04-22T06:42:08;15.50;53.50
48043;DHT22;33988;47.992;8.820;2023-04-22T06:44:35;15.60;53.60
48043;DHT22;33988;47.992;8.820;2023-04-22T06:47:02;15.60;53.60
48043;DHT22;33988;47.992;8.820;2023-04-22T06:49:30;15.60;53.60
48043;DHT22;33988;47.992;8.820;2023-04-22T06:51:56;15.60;53.60
48043;DHT22;33988;47.992;8.820;2023-04-22T06:54:23;15.70;53.60
48043;DHT22;33988;47.992;8.820;2023-04-22T06:56:50;15.70;53.60
48043;DHT22;33988;47.992;8.820;2023-04-22T06:59:19;15.70;53.60
48043;DHT22;33988;47.992;8.820;2023-04-22T07:01:46;15.80;53.70
48043;DHT22;33988;47.992;8.820;2023-04-22T07:04:13;15.80;53.80
48043;DHT22;33988;47.992;8.820;2023-04-22T07:06:43;15.90;53.90
48043;DHT22;33988;47.992;8.820;2023-04-22T07:09:10;15.90;54.10
48043;DHT22;33988;47.992;8.820;2023-04-22T07:11:37;16.00;54.20
48043;DHT22;33988;47.992;8.820;2023-04-22T07:14:12;16.10;54.20
48043;DHT22;33988;47.992;8.820;2023-04-22T07:16:41;16.20;54.30
48043;DHT22;33988;47.992;8.820;2023-04-22T07:19:08;16.30;54.40
48043;DHT22;33988;47.992;8.820;2023-04-22T07:21:38;16.40;54.60
48043;DHT22;33988;47.992;8.820;2023-04-22T07:24:07;16.60;54.70
48043;DHT22;33988;47.992;8.820;2023-04-22T07:26:43;16.80;54.90
48043;DHT22;33988;47.992;8.820;2023-04-22T07:29:10;17.00;55.10
48043;DHT22;33988;47.992;8.820;2023-04-22T07:31:39;17.30;55.40
48043;DHT22;33988;47.992;8.820;2023-04-22T07:34:08;17.50;55.30
48043;DHT22;33988;47.992;8.820;2023-04-22T07:36:37;17.90;55.30
48043;DHT22;33988;47.992;8.820;2023-04-22T07:39:07;18.20;55.40
48043;DHT22;33988;47.992;8.820;2023-04-22T07:41:35;18.50;55.30
48043;DHT22;33988;47.992;8.820;2023-04-22T07:44:04;18.90;55.30
48043;DHT22;33988;47.992;8.820;2023-04-22T07:46:31;19.40;54.90
48043;DHT22;33988;47.992;8.820;2023-04-22T07:48:58;19.90;54.50
48043;DHT22;33988;47.992;8.820;2023-04-22T07:51:27;20.30;53.90
48043;DHT22;33988;47.992;8.820;2023-04-22T07:53:54;20.70;53.20
48043;DHT22;33988;47.992;8.820;2023-04-22T07:56:21;21.20;52.50
48043;DHT22;33988;47.992;8.820;2023-04-22T07:58:48;21.50;51.70
48043;DHT22;33988;47.992;8.820;2023-04-22T08:01:15;21.80;50.90
48043;DHT22;33988;47.992;8.820;2023-04-22T08:03:48;22.10;50.20
48043;DHT22;33988;47.992;8.820;2023-04-22T08:06:15;22.30;49.60
48043;DHT22;33988;47.992;8.820;2023-04-22T08:08:44;22.60;49.30
48043;DHT22;33988;47.992;8.820;2023-04-22T08:11:11;22.70;48.60
48043;DHT22;33988;47.992;8.820;2023-04-22T08:13:41;22.90;48.30
48043;DHT22;33988;47.992;8.820;2023-04-22T08:16:10;23.00;48.00
48043;DHT22;33988;47.992;8.820;2023-04-22T08:18:37;23.10;47.60
48043;DHT22;33988;47.992;8.820;2023-04-22T08:21:06;23.20;47.40
48043;DHT22;33988;47.992;8.820;2023-04-22T08:23:35;23.20;47.10
48043;DHT22;33988;47.992;8.820;2023-04-22T08:26:03;23.20;46.70
48043;DHT22;33988;47.992;8.820;2023-04-22T08:28:30;23.20;46.60
48043;DHT22;33988;47.992;8.820;2023-04-22T08:30:57;23.20;46.40
48043;DHT22;33988;47.992;8.820;2023-04-22T08:33:24;23.20;46.50
48043;DHT22;33988;47.992;8.820;2023-04-22T08:35:55;23.30;46.50
48043;DHT22;33988;47.992;8.820;2023-04-22T08:38:27;23.20;46.40
48043;DHT22;33988;47.992;8.820;2023-04-22T08:40:55;23.20;46.40
48043;DHT22;33988;47.992;8.820;2023-04-22T08:43:24;23.20;46.50
48043;DHT22;33988;47.992;8.820;2023-04-22T08:45:52;23.30;46.60
48043;DHT22;33988;47.992;8.820;2023-04-22T08:48:19;23.30;46.70
48043;DHT22;33988;47.992;8.820;2023-04-22T08:50:49;23.30;46.60
48043;DHT22;33988;47.992;8.820;2023-04-22T08:53:16;23.30;46.40
48043;DHT22;33988;47.992;8.820;2023-04-22T08:55:43;23.30;46.40
48043;DHT22;33988;47.992;8.820;2023-04-22T08:58:17;23.40;46.40
48043;DHT22;33988;47.992;8.820;2023-04-22T09:00:44;23.50;46.30
48043;DHT22;33988;47.992;8.820;2023-04-22T09:03:11;23.50;46.10
48043;DHT22;33988;47.992;8.820;2023-04-22T09:05:40;23.50;46.10
48043;DHT22;33988;47.992;8.820;2023-04-22T09:08:11;23.60;46.10
48043;DHT22;33988;47.992;8.820;2023-04-22T09:10:38;23.60;46.00
48043;DHT22;33988;47.992;8.820;2023-04-22T09:13:08;23.70;46.00
48043;DHT22;33988;47.992;8.820;2023-04-22T09:15:38;23.70;45.80
48043;DHT22;33988;47.992;8.820;2023-04-22T09:18:08;23.80;46.00
48043;DHT22;33988;47.992;8.820;2023-04-22T09:20:41;23.80;45.90
48043;DHT22;33988;47.992;8.820;2023-04-22T09:23:08;23.80;45.70
48043;DHT22;33988;47.992;8.820;2023-04-22T09:25:37;23.90;46.00
48043;DHT22;33988;47.992;8.820;2023-04-22T09:28:04;24.00;46.10
48043;DHT22;33988;47.992;8.820;2023-04-22T09:30:33;24.00;46.00
48043;DHT22;33988;47.992;8.820;2023-04-22T09:33:05;24.10;45.70
48043;DHT22;33988;47.992;8.820;2023-04-22T09:35:38;24.10;45.60
48043;DHT22;33988;47.992;8.820;2023-04-22T09:38:10;24.10;45.40
48043;DHT22;33988;47.992;8.820;2023-04-22T09:40:42;24.20;45.40
48043;DHT22;33988;47.992;8.820;2023-04-22T09:43:13;24.30;45.30
48043;DHT22;33988;47.992;8.820;2023-04-22T09:45:48;24.30;45.10
48043;DHT22;33988;47.992;8.820;2023-04-22T09:48:17;24.40;45.10
48043;DHT22;33988;47.992;8.820;2023-04-22T09:50:49;24.40;44.60
48043;DHT22;33988;47.992;8.820;2023-04-22T09:53:20;24.50;44.50
48043;DHT22;33988;47.992;8.820;2023-04-22T09:55:52;24.50;44.50
48043;DHT22;33988;47.992;8.820;2023-04-22T09:58:20;24.60;44.30
48043;DHT22;33988;47.992;8.820;2023-04-22T10:00:53;24.60;43.90
48043;DHT22;33988;47.992;8.820;2023-04-22T10:03:22;24.60;44.00
48043;DHT22;33988;47.992;8.820;2023-04-22T10:05:49;24.60;43.50
48043;DHT22;33988;47.992;8.820;2023-04-22T10:08:16;24.60;43.00
48043;DHT22;33988;47.992;8.820;2023-04-22T10:10:44;24.70;42.70
48043;DHT22;33988;47.992;8.820;2023-04-22T10:13:11;24.70;42.40
48043;DHT22;33988;47.992;8.820;2023-04-22T10:15:47;24.70;42.30
48043;DHT22;33988;47.992;8.820;2023-04-22T10:18:22;24.70;41.80
48043;DHT22;33988;47.992;8.820;2023-04-22T10:20:50;24.70;41.80
48043;DHT22;33988;47.992;8.820;2023-04-22T10:23:20;24.70;40.90
48043;DHT22;33988;47.992;8.820;2023-04-22T10:25:52;24.70;40.80
48043;DHT22;33988;47.992;8.820;2023-04-22T10:28:21;24.80;40.20
48043;DHT22;33988;47.992;8.820;2023-04-22T10:30:52;24.70;40.20
48043;DHT22;33988;47.992;8.820;2023-04-22T10:36:09;24.80;40.00
48043;DHT22;33988;47.992;8.820;2023-04-22T10:41:22;24.80;39.70
48043;DHT22;33988;47.992;8.820;2023-04-22T10:43:57;24.80;38.90
48043;DHT22;33988;47.992;8.820;2023-04-22T10:49:06;24.80;38.90
48043;DHT22;33988;47.992;8.820;2023-04-22T10:59:55;24.90;38.60
48043;DHT22;33988;47.992;8.820;2023-04-22T11:02:26;24.90;38.20
48043;DHT22;33988;47.992;8.820;2023-04-22T11:05:19;25.00;38.90
48043;DHT22;33988;47.992;8.820;2023-04-22T11:08:00;25.00;37.80
48043;DHT22;33988;47.992;8.820;2023-04-22T11:10:42;25.10;38.20
48043;DHT22;33988;47.992;8.820;2023-04-22T11:13:16;25.10;37.10
48043;DHT22;33988;47.992;8.820;2023-04-22T11:15:48;25.20;37.50
48043;DHT22;33988;47.992;8.820;2023-04-22T11:18:22;25.20;37.70
48043;DHT22;33988;47.992;8.820;2023-04-22T11:20:55;25.30;37.20
48043;DHT22;33988;47.992;8.820;2023-04-22T11:23:26;25.30;36.80
48043;DHT22;33988;47.992;8.820;2023-04-22T11:25:58;25.30;36.80
48043;DHT22;33988;47.992;8.820;2023-04-22T11:28:27;25.30;36.80
48043;DHT22;33988;47.992;8.820;2023-04-22T11:31:07;25.30;37.30
48043;DHT22;33988;47.992;8.820;2023-04-22T11:33:39;25.30;37.20
48043;DHT22;33988;47.992;8.820;2023-04-22T11:36:10;25.30;37.40
48043;DHT22;33988;47.992;8.820;2023-04-22T11:38:37;25.30;36.80
48043;DHT22;33988;47.992;8.820;2023-04-22T11:41:07;25.30;36.90
48043;DHT22;33988;47.992;8.820;2023-04-22T11:43:45;25.40;36.40
48043;DHT22;33988;47.992;8.820;2023-04-22T11:46:13;25.40;36.70
48043;DHT22;33988;47.992;8.820;2023-04-22T11:48:40;25.50;36.50
48043;DHT22;33988;47.992;8.820;2023-04-22T11:51:09;25.50;36.20
48043;DHT22;33988;47.992;8.820;2023-04-22T11:53:49;25.60;36.40
48043;DHT22;33988;47.992;8.820;2023-04-22T11:56:16;25.60;35.50
48043;DHT22;33988;47.992;8.820;2023-04-22T11:58:43;25.60;35.80
48043;DHT22;33988;47.992;8.820;2023-04-22T12:01:12;25.70;35.20
48043;DHT22;33988;47.992;8.820;2023-04-22T12:03:42;25.70;34.20
48043;DHT22;33988;47.992;8.820;2023-04-22T12:06:11;25.80;34.70
48043;DHT22;33988;47.992;8.820;2023-04-22T12:08:39;25.80;34.60
48043;DHT22;33988;47.992;8.820;2023-04-22T12:11:09;25.90;34.50
48043;DHT22;33988;47.992;8.820;2023-04-22T12:16:09;25.90;34.30
48043;DHT22;33988;47.992;8.820;2023-04-22T12:18:48;26.00;34.20
48043;DHT22;33988;47.992;8.820;2023-04-22T12:21:20;26.00;33.10
48043;DHT22;33988;47.992;8.820;2023-04-22T12:23:51;26.10;33.40
48043;DHT22;33988;47.992;8.820;2023-04-22T12:26:23;26.10;33.20
48043;DHT22;33988;47.992;8.820;2023-04-22T12:28:57;26.20;33.40
48043;DHT22;33988;47.992;8.820;2023-04-22T12:31:28;26.20;33.40
48043;DHT22;33988;47.992;8.820;2023-04-22T12:33:55;26.30;33.60
48043;DHT22;33988;47.992;8.820;2023-04-22T12:36:22;26.30;33.40
48043;DHT22;33988;47.992;8.820;2023-04-22T12:38:50;26.40;33.50
48043;DHT22;33988;47.992;8.820;2023-04-22T12:41:19;26.40;33.30
48043;DHT22;33988;47.992;8.820;2023-04-22T12:43:47;26.50;33.30
48043;DHT22;33988;47.992;8.820;2023-04-22T12:46:20;26.50;33.40
48043;DHT22;33988;47.992;8.820;2023-04-22T12:48:49;26.50;33.00
48043;DHT22;33988;47.992;8.820;2023-04-22T12:51:17;26.50;32.80
48043;DHT22;33988;47.992;8.820;2023-04-22T12:53:43;26.60;32.90
48043;DHT22;33988;47.992;8.820;2023-04-22T12:56:12;26.60;32.80
48043;DHT22;33988;47.992;8.820;2023-04-22T12:58:42;26.60;32.60
48043;DHT22;33988;47.992;8.820;2023-04-22T13:01:09;26.60;32.40
48043;DHT22;33988;47.992;8.820;2023-04-22T13:03:38;26.50;32.40
48043;DHT22;33988;47.992;8.820;2023-04-22T13:06:05;26.50;32.10
48043;DHT22;33988;47.992;8.820;2023-04-22T13:08:34;26.50;31.90
48043;DHT22;33988;47.992;8.820;2023-04-22T13:11:01;26.40;32.10
48043;DHT22;33988;47.992;8.820;2023-04-22T13:13:31;26.40;32.30
48043;DHT22;33988;47.992;8.820;2023-04-22T13:16:00;26.30;32.70
48043;DHT22;33988;47.992;8.820;2023-04-22T13:18:27;26.20;33.00
48043;DHT22;33988;47.992;8.820;2023-04-22T13:20:54;26.20;33.00
48043;DHT22;33988;47.992;8.820;2023-04-22T13:23:24;26.10;33.00
48043;DHT22;33988;47.992;8.820;2023-04-22T13:25:52;26.00;33.10
48043;DHT22;33988;47.992;8.820;2023-04-22T13:28:19;26.00;33.30
48043;DHT22;33988;47.992;8.820;2023-04-22T13:30:46;26.00;33.40
48043;DHT22;33988;47.992;8.820;2023-04-22T13:33:16;26.00;33.40
48043;DHT22;33988;47.992;8.820;2023-04-22T13:35:42;26.00;33.20
48043;DHT22;33988;47.992;8.820;2023-04-22T13:38:09;25.90;33.30
48043;DHT22;33988;47.992;8.820;2023-04-22T13:40:36;25.90;33.30
48043;DHT22;33988;47.992;8.820;2023-04-22T13:43:03;25.90;33.30
48043;DHT22;33988;47.992;8.820;2023-04-22T13:45:33;25.90;33.40
48043;DHT22;33988;47.992;8.820;2023-04-22T13:48:00;25.90;33.60
48043;DHT22;33988;47.992;8.820;2023-04-22T13:50:30;25.90;33.70
48043;DHT22;33988;47.992;8.820;2023-04-22T13:52:59;25.90;33.70
48043;DHT22;33988;47.992;8.820;2023-04-22T13:55:26;25.80;33.60
48043;DHT22;33988;47.992;8.820;2023-04-22T13:57:53;25.80;33.70
48043;DHT22;33988;47.992;8.820;2023-04-22T14:00:20;25.80;33.90
48043;DHT22;33988;47.992;8.820;2023-04-22T14:02:47;25.70;33.90
48043;DHT22;33988;47.992;8.820;2023-04-22T14:05:14;25.70;33.90
48043;DHT22;33988;47.992;8.820;2023-04-22T14:07:44;25.60;33.80
48043;DHT22;33988;47.992;8.820;2023-04-22T14:10:11;25.60;34.00
48043;DHT22;33988;47.992;8.820;2023-04-22T14:12:41;25.60;34.10
48043;DHT22;33988;47.992;8.820;2023-04-22T14:15:12;25.50;34.30
48043;DHT22;33988;47.992;8.820;2023-04-22T14:17:39;25.50;34.50
48043;DHT22;33988;47.992;8.820;2023-04-22T14:20:07;25.50;34.90
48043;DHT22;33988;47.992;8.820;2023-04-22T14:22:35;25.50;35.20
48043;DHT22;33988;47.992;8.820;2023-04-22T14:25:02;25.50;35.30
48043;DHT22;33988;47.992;8.820;2023-04-22T14:27:29;25.50;35.20
48043;DHT22;33988;47.992;8.820;2023-04-22T14:29:57;25.50;35.40
48043;DHT22;33988;47.992;8.820;2023-04-22T14:32:24;25.50;35.50
48043;DHT22;33988;47.992;8.820;2023-04-22T14:34:51;25.40;35.50
48043;DHT22;33988;47.992;8.820;2023-04-22T14:37:21;25.50;35.70
48043;DHT22;33988;47.992;8.820;2023-04-22T14:39:51;25.40;35.70
48043;DHT22;33988;47.992;8.820;2023-04-22T14:42:18;25.50;35.80
48043;DHT22;33988;47.992;8.820;2023-04-22T14:44:46;25.50;35.80
48043;DHT22;33988;47.992;8.820;2023-04-22T14:47:12;25.50;35.80
48043;DHT22;33988;47.992;8.820;2023-04-22T14:49:39;25.40;35.80
48043;DHT22;33988;47.992;8.820;2023-04-22T14:52:07;25.40;35.80
48043;DHT22;33988;47.992;8.820;2023-04-22T14:54:37;25.40;36.00
48043;DHT22;33988;47.992;8.820;2023-04-22T14:57:04;25.40;35.90
48043;DHT22;33988;47.992;8.820;2023-04-22T14:59:31;25.30;35.90
48043;DHT22;33988;47.992;8.820;2023-04-22T15:01:58;25.40;35.90
48043;DHT22;33988;47.992;8.820;2023-04-22T15:04:25;25.30;36.10
48043;DHT22;33988;47.992;8.820;2023-04-22T15:06:52;25.30;36.20
48043;DHT22;33988;47.992;8.820;2023-04-22T15:09:23;25.30;36.40
48043;DHT22;33988;47.992;8.820;2023-04-22T15:11:50;25.30;36.40
48043;DHT22;33988;47.992;8.820;2023-04-22T15:14:17;25.30;36.80
48043;DHT22;33988;47.992;8.820;2023-04-22T15:16:46;25.20;36.70
48043;DHT22;33988;47.992;8.820;2023-04-22T15:19:13;25.20;36.70
48043;DHT22;33988;47.992;8.820;2023-04-22T15:21:40;25.20;36.80
48043;DHT22;33988;47.992;8.820;2023-04-22T15:24:06;25.20;37.00
48043;DHT22;33988;47.992;8.820;2023-04-22T15:26:33;25.20;36.80
48043;DHT22;33988;47.992;8.820;2023-04-22T15:29:00;25.10;36.60
48043;DHT22;33988;47.992;8.820;2023-04-22T15:31:27;25.10;36.50
48043;DHT22;33988;47.992;8.820;2023-04-22T15:33:54;25.00;36.50
48043;DHT22;33988;47.992;8.820;2023-04-22T15:36:21;25.00;36.60
48043;DHT22;33988;47.992;8.820;2023-04-22T15:38:53;24.90;36.60
48043;DHT22;33988;47.992;8.820;2023-04-22T15:41:22;24.90;36.50
48043;DHT22;33988;47.992;8.820;2023-04-22T15:43:50;24.90;36.70
48043;DHT22;33988;47.992;8.820;2023-04-22T15:46:20;24.80;36.70
48043;DHT22;33988;47.992;8.820;2023-04-22T15:48:48;24.80;36.70
48043;DHT22;33988;47.992;8.820;2023-04-22T15:51:16;24.70;36.80
48043;DHT22;33988;47.992;8.820;2023-04-22T15:53:46;24.70;37.00
48043;DHT22;33988;47.992;8.820;2023-04-22T15:56:14;24.60;37.10
48043;DHT22;33988;47.992;8.820;2023-04-22T15:58:41;24.60;37.40